createdAt,value
2022-09-23T00:02:52.158Z,11.02
2022-09-23T00:07:57.246Z,13.41
2022-09-23T00:12:59.455Z,14.77
2022-09-23T00:18:01.130Z,14.57
2022-09-23T00:23:03.191Z,12.48
2022-09-23T00:28:04.998Z,10.99
2022-09-23T00:33:06.764Z,11.11
2022-09-23T00:38:08.404Z,13.44
2022-09-23T00:43:14.641Z,14.55
2022-09-23T00:48:20.759Z,15.24
2022-09-23T00:53:26.264Z,14.58
2022-09-23T00:58:34.290Z,12.12
2022-09-23T01:03:36.224Z,10.46
2022-09-23T01:08:39.330Z,10.76
2022-09-23T01:14:15.775Z,13.57
2022-09-23T01:19:35.930Z,15.06
2022-09-23T01:25:13.044Z,14.62
2022-09-23T01:30:33.272Z,12.10
2022-09-23T01:36:10.353Z,10.66
2022-09-23T01:41:43.552Z,11.35
2022-09-23T01:46:55.165Z,14.13
2022-09-23T01:52:07.480Z,15.35
2022-09-23T01:57:43.048Z,14.37
2022-09-23T02:02:54.237Z,11.87
2022-09-23T02:08:10.455Z,10.46
2022-09-23T02:13:40.235Z,11.01
2022-09-23T02:18:53.020Z,13.85
2022-09-23T02:24:05.870Z,15.05
2022-09-23T02:29:37.452Z,14.68
2022-09-23T02:35:17.542Z,12.28
2022-09-23T02:40:41.453Z,10.73
2022-09-23T02:45:43.651Z,9.69
2022-09-23T02:50:47.298Z,10.20
2022-09-23T02:55:49.693Z,13.07
2022-09-23T03:01:22.129Z,14.47
2022-09-23T03:06:43.893Z,14.06
2022-09-23T03:11:59.429Z,11.79
2022-09-23T03:17:15.529Z,10.35
2022-09-23T03:22:43.423Z,9.37
2022-09-23T03:27:45.498Z,10.15
2022-09-23T03:32:49.233Z,12.88
2022-09-23T03:38:08.940Z,14.33
2022-09-23T03:43:13.460Z,14.10
2022-09-23T03:48:15.144Z,11.79
2022-09-23T03:53:20.688Z,10.34
2022-09-23T03:58:22.369Z,9.36
2022-09-23T04:03:28.856Z,9.91
2022-09-23T04:08:30.643Z,12.78
2022-09-23T04:13:32.602Z,14.12
2022-09-23T04:18:35.003Z,13.96
2022-09-23T04:23:36.774Z,11.69
2022-09-23T04:28:38.959Z,10.23
2022-09-23T04:33:40.969Z,9.29
2022-09-23T04:38:48.252Z,9.88
2022-09-23T04:43:50.011Z,12.77
2022-09-23T04:48:51.790Z,14.15
2022-09-23T04:53:55.331Z,14.01
2022-09-23T04:58:57.741Z,11.81
2022-09-23T05:04:04.650Z,10.39
2022-09-23T05:09:08.469Z,9.46
2022-09-23T05:14:10.600Z,9.96
2022-09-23T05:19:13.086Z,12.83
2022-09-23T05:24:16.294Z,14.38
2022-09-23T05:29:18.082Z,14.13
2022-09-23T05:34:19.864Z,11.84
2022-09-23T05:39:21.655Z,10.46
2022-09-23T05:44:23.404Z,9.59
2022-09-23T05:49:42.653Z,10.13
2022-09-23T05:54:46.909Z,13.23
2022-09-23T05:59:48.689Z,14.78
2022-09-23T06:04:50.375Z,14.60
2022-09-23T06:09:53.566Z,12.39
2022-09-23T06:14:55.237Z,11.03
2022-09-23T06:19:57.225Z,10.12
2022-09-23T06:24:59.097Z,10.76
2022-09-23T06:30:00.894Z,13.84
2022-09-23T06:35:03.072Z,15.37
2022-09-23T06:40:06.168Z,15.10
2022-09-23T06:45:12.553Z,12.82
2022-09-23T06:50:14.422Z,11.49
2022-09-23T06:55:16.195Z,11.87
2022-09-23T07:00:18.998Z,14.63
2022-09-23T07:05:21.953Z,15.80
2022-09-23T07:10:23.779Z,15.77
2022-09-23T07:15:25.549Z,13.67
2022-09-23T07:20:27.354Z,13.51
2022-09-23T07:25:29.626Z,16.00
2022-09-23T07:30:31.818Z,16.23
2022-09-23T07:35:34.337Z,14.08
2022-09-23T07:40:38.683Z,13.99
2022-09-23T07:45:43.168Z,16.54
2022-09-23T07:50:44.939Z,16.76
2022-09-23T07:55:55.404Z,14.62
2022-09-23T08:01:09.724Z,13.33
2022-09-23T08:06:13.573Z,14.13
2022-09-23T08:11:15.407Z,17.08
2022-09-23T08:16:17.233Z,18.35
2022-09-23T08:21:22.931Z,17.47
2022-09-23T08:26:25.623Z,15.36
2022-09-23T08:31:27.337Z,14.10
2022-09-23T08:36:30.728Z,14.62
2022-09-23T08:41:58.215Z,17.28
2022-09-23T08:47:40.889Z,17.51
2022-09-23T08:53:05.055Z,15.27
2022-09-23T08:58:43.976Z,14.17
2022-09-23T09:03:56.185Z,15.10
2022-09-23T09:09:02.581Z,17.78
2022-09-23T09:14:29.780Z,17.95
2022-09-23T09:20:02.824Z,15.86
2022-09-23T09:25:40.363Z,14.59
2022-09-23T09:30:48.391Z,15.55
2022-09-23T09:36:44.745Z,17.91
2022-09-23T09:41:51.733Z,17.52
2022-09-23T09:47:46.148Z,15.82
2022-09-23T09:52:48.480Z,16.49
2022-09-23T09:58:01.117Z,18.77
2022-09-23T10:03:22.647Z,17.77
2022-09-23T10:08:36.550Z,16.36
2022-09-23T10:13:38.276Z,15.58
2022-09-23T10:18:45.677Z,15.33
2022-09-23T10:23:58.228Z,15.51
2022-09-23T10:29:22.528Z,17.99
2022-09-23T10:34:28.481Z,19.09
2022-09-23T10:39:48.543Z,17.20
2022-09-23T10:45:23.679Z,15.89
2022-09-23T10:50:48.782Z,15.22
2022-09-23T10:56:08.705Z,14.97
2022-09-23T11:01:41.761Z,14.96
2022-09-23T11:07:25.551Z,16.61
2022-09-23T11:12:53.487Z,18.82
2022-09-23T11:18:16.898Z,17.64
2022-09-23T11:23:50.505Z,17.16
2022-09-23T11:29:20.572Z,16.51
2022-09-23T11:35:03.388Z,15.76
2022-09-23T11:40:13.182Z,15.37
2022-09-23T11:45:26.499Z,17.85
2022-09-23T11:50:39.960Z,18.60
2022-09-23T11:55:58.319Z,16.68
2022-09-23T12:01:22.236Z,15.46
2022-09-23T12:06:46.622Z,14.74
2022-09-23T12:12:42.322Z,14.25
2022-09-23T12:18:10.614Z,15.55
2022-09-23T12:23:43.212Z,18.27
2022-09-23T12:28:50.349Z,19.43
2022-09-23T12:33:53.909Z,18.28
2022-09-23T12:39:40.133Z,16.73
2022-09-23T12:44:46.522Z,15.68
2022-09-23T12:49:50.434Z,15.16
2022-09-23T12:54:58.056Z,14.77
2022-09-23T13:00:12.409Z,14.50
2022-09-23T13:05:44.713Z,14.40
2022-09-23T13:10:57.867Z,14.38
2022-09-23T13:16:20.754Z,15.16
2022-09-23T13:21:45.300Z,18.22
2022-09-23T13:26:53.475Z,18.84
2022-09-23T13:31:57.394Z,17.46
2022-09-23T13:37:22.225Z,16.73
2022-09-23T13:42:29.642Z,16.21
2022-09-23T13:47:35.519Z,15.86
2022-09-23T13:52:37.461Z,15.69
2022-09-23T13:57:39.258Z,15.62
2022-09-23T14:02:46.382Z,15.68
2022-09-23T14:07:53.355Z,15.88
2022-09-23T14:12:56.949Z,16.08
2022-09-23T14:18:07.839Z,16.20
2022-09-23T14:23:16.232Z,16.25
2022-09-23T14:28:22.497Z,16.17
2022-09-23T14:33:32.968Z,16.07
2022-09-23T14:38:50.941Z,15.81
2022-09-23T14:44:00.473Z,15.43
2022-09-23T14:49:10.453Z,15.20
2022-09-23T14:54:35.118Z,15.05
2022-09-23T14:59:37.343Z,14.91
2022-09-23T15:04:39.083Z,15.88
2022-09-23T15:09:43.617Z,18.65
2022-09-23T15:14:52.269Z,19.35
2022-09-23T15:20:00.221Z,17.83
2022-09-23T15:25:31.547Z,16.87
2022-09-23T15:30:36.069Z,16.22
2022-09-23T15:35:47.186Z,15.81
2022-09-23T15:40:49.567Z,15.52
2022-09-23T15:46:04.396Z,15.30
2022-09-23T15:51:09.296Z,15.09
2022-09-23T15:56:10.982Z,16.02
2022-09-23T16:01:36.076Z,18.86
2022-09-23T16:06:39.208Z,19.36
2022-09-23T16:11:49.826Z,17.63
2022-09-23T16:16:51.595Z,16.51
2022-09-23T16:21:53.536Z,15.78
2022-09-23T16:26:59.441Z,15.18
2022-09-23T16:32:02.719Z,15.89
2022-09-23T16:37:05.223Z,18.54
2022-09-23T16:42:07.019Z,19.90
2022-09-23T16:47:09.066Z,19.78
2022-09-23T16:52:11.561Z,17.84
2022-09-23T16:57:13.436Z,16.60
2022-09-23T17:02:34.269Z,15.73
2022-09-23T17:07:36.341Z,16.34
2022-09-23T17:12:38.254Z,18.95
2022-09-23T17:17:39.990Z,19.33
2022-09-23T17:22:42.605Z,17.45
2022-09-23T17:27:44.362Z,16.26
2022-09-23T17:32:46.852Z,15.45
2022-09-23T17:37:49.548Z,15.98
2022-09-23T17:42:55.126Z,18.76
2022-09-23T17:47:56.904Z,18.98
2022-09-23T17:53:00.097Z,16.94
2022-09-23T17:58:01.878Z,15.66
2022-09-23T18:03:03.653Z,14.83
2022-09-23T18:08:06.207Z,15.41
2022-09-23T18:13:08.325Z,18.06
2022-09-23T18:18:10.302Z,19.32
2022-09-23T18:23:12.387Z,19.13
2022-09-23T18:28:14.160Z,17.03
2022-09-23T18:33:15.937Z,15.64
2022-09-23T18:38:18.734Z,14.73
2022-09-23T18:43:25.602Z,15.35
2022-09-23T18:48:49.126Z,18.10
2022-09-23T18:53:57.135Z,19.48
2022-09-23T18:58:59.011Z,18.84
2022-09-23T19:04:02.639Z,16.84
2022-09-23T19:09:06.896Z,15.63
2022-09-23T19:14:11.549Z,14.70
2022-09-23T19:19:13.898Z,15.26
2022-09-23T19:24:19.477Z,17.97
2022-09-23T19:29:22.907Z,19.32
2022-09-23T19:34:28.665Z,18.90
2022-09-23T19:39:31.450Z,16.80
2022-09-23T19:44:37.308Z,15.48
2022-09-23T19:49:39.299Z,14.54
2022-09-23T19:54:41.204Z,15.19
2022-09-23T19:59:43.352Z,17.83
2022-09-23T20:04:45.244Z,19.07
2022-09-23T20:09:47.005Z,18.71
2022-09-23T20:14:51.027Z,16.65
2022-09-23T20:19:52.911Z,15.33
2022-09-23T20:24:55.721Z,14.40
2022-09-23T20:29:59.064Z,14.91
2022-09-23T20:35:00.920Z,17.51
2022-09-23T20:40:03.796Z,18.86
2022-09-23T20:45:07.218Z,18.69
2022-09-23T20:50:10.932Z,16.55
2022-09-23T20:55:13.012Z,15.21
2022-09-23T21:00:15.521Z,14.29
2022-09-23T21:05:17.686Z,14.75
2022-09-23T21:10:22.430Z,17.29
2022-09-23T21:15:24.310Z,18.63
2022-09-23T21:20:26.392Z,18.43
2022-09-23T21:25:29.239Z,16.34
2022-09-23T21:30:31.923Z,15.02
2022-09-23T21:35:33.658Z,14.13
2022-09-23T21:40:54.099Z,14.65
2022-09-23T21:46:01.910Z,17.24
2022-09-23T21:51:11.298Z,18.52
2022-09-23T21:56:19.625Z,18.39
2022-09-23T22:01:34.625Z,16.33
2022-09-23T22:06:39.814Z,14.97
2022-09-23T22:12:01.252Z,14.03
2022-09-23T22:17:06.809Z,14.71
2022-09-23T22:22:13.967Z,17.17
2022-09-23T22:27:19.060Z,18.22
2022-09-23T22:32:39.920Z,17.64
2022-09-23T22:37:41.966Z,15.58
2022-09-23T22:42:44.769Z,14.34
2022-09-23T22:47:46.960Z,13.40
2022-09-23T22:52:49.234Z,13.91
2022-09-23T22:57:51.217Z,16.63
2022-09-23T23:02:54.233Z,17.87
2022-09-23T23:07:57.117Z,17.37
2022-09-23T23:12:58.795Z,15.34
2022-09-23T23:18:00.596Z,14.06
2022-09-23T23:23:03.167Z,13.20
2022-09-23T23:28:05.447Z,13.78
2022-09-23T23:33:07.252Z,16.48
2022-09-23T23:38:10.534Z,17.77
2022-09-23T23:43:12.306Z,17.28
2022-09-23T23:48:14.081Z,15.22
2022-09-23T23:53:15.856Z,13.88
2022-09-23T23:58:18.585Z,12.94
